Alize — OR6256 — position and weather

sailwx.info

Track history (hours):
 
Tides and Currents Weather Stations Pressure Air Temp Water Temp Dewpoint Dewpoint Depression Visibility Wind Speed Wind Dir Waves Ship Positions

Alize

Last reported at 2018-Apr-15 14:51 UTC. Time now 2018-May-25 18:55 UTC.
Position N 47°43' W 003°22'.
Warning: this ship's position is 40 days out of date.

Length 20 m.

Type: Pleasure craft. MMSI: 205625610.

Date/timePositionNaut miles runAvg speedWind from/ knotsBaromVisibWave heightAir tempDewpointWater temp
2018-Apr-15 14:51N 47°43' W 003°22'0 0.0
2018-Apr-15 14:29N 47°43' W 003°22'1 2.9
2018-Apr-15 14:00N 47°42' W 003°22'3 5.3
2018-Apr-15 13:29N 47°39' W 003°24'1 0.2
2018-Apr-15 08:09N 47°38' W 003°25'0 0.1
2018-Apr-15 08:00N 47°38' W 003°25'0 0.0
2018-Apr-15 07:30N 47°38' W 003°25'0 0.0
2018-Apr-15 07:00N 47°38' W 003°25'0 0.0
2018-Apr-15 06:30N 47°38' W 003°25'0 0.0
2018-Apr-15 06:00N 47°38' W 003°25'0 0.0
2018-Apr-15 05:26N 47°38' W 003°25'0 0.0
2018-Apr-15 04:59N 47°38' W 003°25'0 0.0
2018-Apr-15 04:28N 47°38' W 003°25'0 0.0
2018-Apr-15 03:59N 47°38' W 003°25'0 0.0
2018-Apr-15 03:29N 47°38' W 003°25'0 0.0
2018-Apr-15 03:00N 47°38' W 003°25'0 0.0
2018-Apr-15 02:30N 47°38' W 003°25'0 0.0
2018-Apr-15 02:00N 47°38' W 003°25'0 0.0
2018-Apr-15 01:29N 47°38' W 003°25'0 0.0
2018-Apr-15 01:00N 47°38' W 003°25'0 0.0
2018-Apr-15 00:30N 47°38' W 003°25'0 0.0
2018-Apr-14 23:58N 47°38' W 003°25'0 0.0
2018-Apr-14 23:28N 47°38' W 003°25'0 0.0
2018-Apr-14 22:59N 47°38' W 003°25'0 0.0
2018-Apr-14 22:29N 47°38' W 003°25'0 0.0
2018-Apr-14 21:59N 47°38' W 003°25'0 0.0
2018-Apr-14 21:30N 47°38' W 003°25'0 0.6
2018-Apr-14 21:00N 47°39' W 003°25'3 5.6
2018-Apr-14 20:30N 47°41' W 003°22'2 4.4
2018-Apr-14 19:59N 47°43' W 003°22'  
Track history (hours):
 
Tides and Currents Weather Stations Pressure Air Temp Water Temp Dewpoint Dewpoint Depression Visibility Wind Speed Wind Dir Waves Ship Positions

Alize

Last reported at 2018-Apr-15 14:51 UTC. Time now 2018-May-25 18:55 UTC.
Position N 47°43' W 003°22'.
Warning: this ship's position is 40 days out of date.

Length 20 m.

Type: Pleasure craft. MMSI: 205625610.

Date/timePositionNaut miles runAvg speedWind from/ knotsBaromVisibWave heightAir tempDewpointWater temp
2018-Apr-15 14:51N 47°43' W 003°22'0 0.0
2018-Apr-15 14:29N 47°43' W 003°22'1 2.9
2018-Apr-15 14:00N 47°42' W 003°22'3 5.3
2018-Apr-15 13:29N 47°39' W 003°24'1 0.2
2018-Apr-15 08:09N 47°38' W 003°25'0 0.1
2018-Apr-15 08:00N 47°38' W 003°25'0 0.0
2018-Apr-15 07:30N 47°38' W 003°25'0 0.0
2018-Apr-15 07:00N 47°38' W 003°25'0 0.0
2018-Apr-15 06:30N 47°38' W 003°25'0 0.0
2018-Apr-15 06:00N 47°38' W 003°25'0 0.0
2018-Apr-15 05:26N 47°38' W 003°25'0 0.0
2018-Apr-15 04:59N 47°38' W 003°25'0 0.0
2018-Apr-15 04:28N 47°38' W 003°25'0 0.0
2018-Apr-15 03:59N 47°38' W 003°25'0 0.0
2018-Apr-15 03:29N 47°38' W 003°25'0 0.0
2018-Apr-15 03:00N 47°38' W 003°25'0 0.0
2018-Apr-15 02:30N 47°38' W 003°25'0 0.0
2018-Apr-15 02:00N 47°38' W 003°25'0 0.0
2018-Apr-15 01:29N 47°38' W 003°25'0 0.0
2018-Apr-15 01:00N 47°38' W 003°25'0 0.0
2018-Apr-15 00:30N 47°38' W 003°25'0 0.0
2018-Apr-14 23:58N 47°38' W 003°25'0 0.0
2018-Apr-14 23:28N 47°38' W 003°25'0 0.0
2018-Apr-14 22:59N 47°38' W 003°25'0 0.0
2018-Apr-14 22:29N 47°38' W 003°25'0 0.0
2018-Apr-14 21:59N 47°38' W 003°25'0 0.0
2018-Apr-14 21:30N 47°38' W 003°25'0 0.6
2018-Apr-14 21:00N 47°39' W 003°25'3 5.6
2018-Apr-14 20:30N 47°41' W 003°22'2 4.4
2018-Apr-14 19:59N 47°43' W 003°22'  

Dump ship's entire track history